createdAt,value
2019-03-30T00:02:09.372Z,99.90
2019-03-30T00:04:38.077Z,99.90
2019-03-30T00:07:09.442Z,99.90
2019-03-30T00:09:37.888Z,99.90
2019-03-30T00:12:06.329Z,99.90
2019-03-30T00:14:34.780Z,99.90
2019-03-30T00:17:03.223Z,99.90
2019-03-30T00:19:35.129Z,99.90
2019-03-30T00:22:05.851Z,99.90
2019-03-30T00:24:34.314Z,99.90
2019-03-30T00:27:02.753Z,99.90
2019-03-30T00:29:31.196Z,99.90
2019-03-30T00:31:59.657Z,99.90
2019-03-30T00:34:28.137Z,99.90
2019-03-30T00:37:18.426Z,99.90
2019-03-30T00:39:47.135Z,99.90
2019-03-30T00:42:18.643Z,99.90
2019-03-30T00:44:47.161Z,99.90
2019-03-30T00:47:18.508Z,99.90
2019-03-30T00:49:49.711Z,99.90
2019-03-30T00:52:17.542Z,99.90
2019-03-30T00:54:45.980Z,99.90
2019-03-30T00:57:14.421Z,99.90
2019-03-30T00:59:42.878Z,99.90
2019-03-30T01:02:11.305Z,99.90
2019-03-30T01:04:39.759Z,99.90
2019-03-30T01:07:08.465Z,99.90
2019-03-30T01:09:36.929Z,99.90
2019-03-30T01:12:05.641Z,99.90
2019-03-30T01:14:34.091Z,99.90
2019-03-30T01:17:02.954Z,99.90
2019-03-30T01:19:40.917Z,99.90
2019-03-30T01:22:09.423Z,99.90
2019-03-30T01:24:37.876Z,99.90
2019-03-30T01:27:06.381Z,99.90
2019-03-30T01:29:34.842Z,99.90
2019-03-30T01:32:03.546Z,99.90
2019-03-30T01:34:32.271Z,99.90
2019-03-30T01:37:00.970Z,99.90
2019-03-30T01:39:29.437Z,99.90
2019-03-30T01:41:57.876Z,99.90
2019-03-30T01:44:26.305Z,99.90
2019-03-30T01:46:54.763Z,99.90
2019-03-30T01:49:23.568Z,99.90
2019-03-30T01:52:28.336Z,99.90
2019-03-30T01:54:56.781Z,99.90
2019-03-30T01:57:25.486Z,99.90
2019-03-30T01:59:54.177Z,99.90
2019-03-30T02:02:25.609Z,99.90
2019-03-30T02:04:54.054Z,99.90
2019-03-30T02:07:22.594Z,99.90
2019-03-30T02:09:51.033Z,99.90
2019-03-30T02:12:19.501Z,99.90
2019-03-30T02:14:48.196Z,99.90
2019-03-30T02:17:21.469Z,99.90
2019-03-30T02:19:49.902Z,99.90
2019-03-30T02:22:18.345Z,99.90
2019-03-30T02:24:46.805Z,99.90
2019-03-30T02:27:15.247Z,99.90
2019-03-30T02:29:43.700Z,99.90
2019-03-30T02:32:12.123Z,99.90
2019-03-30T02:34:40.840Z,99.90
2019-03-30T02:37:09.561Z,99.90
2019-03-30T02:39:38.320Z,99.90
2019-03-30T02:42:07.016Z,99.90
2019-03-30T02:44:35.729Z,99.90
2019-03-30T02:47:04.230Z,99.90
2019-03-30T02:49:32.671Z,99.90
2019-03-30T02:52:01.115Z,99.90
2019-03-30T02:54:29.581Z,99.90
2019-03-30T02:56:58.022Z,99.90
2019-03-30T02:59:26.714Z,99.90
2019-03-30T03:01:55.164Z,99.90
2019-03-30T03:04:23.849Z,99.90
2019-03-30T03:06:52.312Z,99.90
2019-03-30T03:09:21.009Z,99.90
2019-03-30T03:11:49.775Z,99.90
2019-03-30T03:14:18.278Z,99.90
2019-03-30T03:16:46.753Z,99.90
2019-03-30T03:19:15.173Z,99.90
2019-03-30T03:21:43.632Z,99.90
2019-03-30T03:24:12.326Z,99.90
2019-03-30T03:26:40.777Z,99.90
2019-03-30T03:29:09.463Z,99.90
2019-03-30T03:31:37.893Z,99.90
2019-03-30T03:34:06.353Z,99.90
2019-03-30T03:36:34.852Z,99.90
2019-03-30T03:39:04.805Z,99.90
2019-03-30T03:41:33.582Z,99.90
2019-03-30T03:44:02.308Z,99.90
2019-03-30T03:46:30.974Z,99.90
2019-03-30T03:48:59.687Z,99.90
2019-03-30T03:51:29.447Z,99.90
2019-03-30T03:53:57.976Z,99.90
2019-03-30T03:56:27.776Z,99.90
2019-03-30T03:58:57.549Z,99.90
2019-03-30T04:01:27.494Z,99.90
2019-03-30T04:03:59.663Z,99.90
2019-03-30T04:06:30.022Z,99.90
2019-03-30T04:09:01.482Z,99.90
2019-03-30T04:11:31.871Z,99.90
2019-03-30T04:14:01.772Z,99.90
2019-03-30T04:16:30.613Z,99.90
2019-03-30T04:18:59.051Z,99.90
2019-03-30T04:21:42.916Z,99.90
2019-03-30T04:23:58.178Z,99.90
2019-03-30T04:26:26.889Z,99.90
2019-03-30T04:28:55.321Z,99.90
2019-03-30T04:31:24.141Z,99.90
2019-03-30T04:33:52.635Z,99.90
2019-03-30T04:36:21.329Z,99.90
2019-03-30T04:38:50.016Z,99.90
2019-03-30T04:41:18.720Z,99.90
2019-03-30T04:43:47.156Z,99.90
2019-03-30T04:46:15.592Z,99.90
2019-03-30T04:48:46.746Z,99.90
2019-03-30T04:51:15.426Z,99.90
2019-03-30T04:53:44.137Z,99.90
2019-03-30T04:56:12.825Z,99.90
2019-03-30T04:58:41.291Z,99.90
2019-03-30T05:01:09.977Z,99.90
2019-03-30T05:03:38.436Z,99.90
2019-03-30T05:06:06.884Z,99.90
2019-03-30T05:08:35.657Z,99.90
2019-03-30T05:11:04.356Z,99.90
2019-03-30T05:13:32.787Z,99.90
2019-03-30T05:16:01.254Z,99.90
2019-03-30T05:18:29.680Z,99.90
2019-03-30T05:20:58.212Z,99.90
2019-03-30T05:23:26.909Z,99.90
2019-03-30T05:25:55.351Z,99.90
2019-03-30T05:28:23.797Z,99.90
2019-03-30T05:30:52.509Z,99.90
2019-03-30T05:33:21.217Z,99.90
2019-03-30T05:35:51.263Z,99.90
2019-03-30T05:38:19.700Z,99.90
2019-03-30T05:40:48.138Z,99.90
2019-03-30T05:43:16.590Z,99.90
2019-03-30T05:45:45.279Z,99.90
2019-03-30T05:48:13.737Z,99.90
2019-03-30T05:50:42.168Z,99.90
2019-03-30T05:53:10.621Z,99.90
2019-03-30T05:55:39.054Z,99.90
2019-03-30T05:58:07.780Z,99.90
2019-03-30T06:00:36.273Z,99.90
2019-03-30T06:03:04.989Z,99.90
2019-03-30T06:05:33.423Z,99.90
2019-03-30T06:08:03.080Z,99.90
2019-03-30T06:10:43.513Z,99.90
2019-03-30T06:13:15.160Z,99.90
2019-03-30T06:15:43.616Z,99.90
2019-03-30T06:18:12.315Z,99.90
2019-03-30T06:20:43.697Z,99.90
2019-03-30T06:23:12.128Z,99.90
2019-03-30T06:25:40.850Z,99.90
2019-03-30T06:28:09.344Z,99.90
2019-03-30T06:30:37.800Z,99.90
2019-03-30T06:33:06.238Z,99.90
2019-03-30T06:35:34.776Z,99.90
2019-03-30T06:38:03.468Z,99.90
2019-03-30T06:40:32.189Z,99.90
2019-03-30T06:43:00.624Z,99.90
2019-03-30T06:45:29.316Z,99.90
2019-03-30T06:47:58.033Z,99.90
2019-03-30T06:50:26.465Z,99.90
2019-03-30T06:52:57.865Z,99.90
2019-03-30T06:55:25.073Z,99.90
2019-03-30T06:57:53.679Z,99.90
2019-03-30T07:00:35.885Z,99.90
2019-03-30T07:03:05.875Z,99.90
2019-03-30T07:05:41.429Z,99.90
2019-03-30T07:08:11.813Z,99.90
2019-03-30T07:10:40.609Z,99.90
2019-03-30T07:13:09.648Z,99.90
2019-03-30T07:15:44.230Z,99.90
2019-03-30T07:18:13.968Z,99.90
2019-03-30T07:20:45.491Z,99.90
2019-03-30T07:23:13.924Z,99.90
2019-03-30T07:25:42.629Z,99.90
2019-03-30T07:28:47.131Z,99.90
2019-03-30T07:31:14.996Z,99.90
2019-03-30T07:33:43.677Z,99.90
2019-03-30T07:36:12.136Z,99.90
2019-03-30T07:38:40.812Z,99.90
2019-03-30T07:41:09.269Z,99.90
2019-03-30T07:43:37.702Z,99.90
2019-03-30T07:46:06.420Z,99.90
2019-03-30T07:48:35.105Z,99.90
2019-03-30T07:51:03.549Z,99.90
2019-03-30T07:53:43.984Z,99.90
2019-03-30T07:56:08.783Z,99.90
2019-03-30T07:58:33.003Z,99.90
2019-03-30T08:01:01.455Z,99.90
2019-03-30T08:03:30.383Z,99.90
2019-03-30T08:05:59.136Z,99.90
2019-03-30T08:08:27.593Z,99.90
2019-03-30T08:10:56.028Z,99.90
2019-03-30T08:13:26.174Z,99.90
2019-03-30T08:15:54.601Z,99.90
2019-03-30T08:18:23.293Z,99.90
2019-03-30T08:20:52.019Z,99.90
2019-03-30T08:23:20.705Z,99.90
2019-03-30T08:25:49.428Z,99.90
2019-03-30T08:28:18.041Z,99.90
2019-03-30T08:30:46.772Z,99.60
2019-03-30T08:33:15.289Z,98.30
2019-03-30T08:35:44.152Z,96.80
2019-03-30T08:38:12.874Z,97.00
2019-03-30T08:40:43.019Z,95.40
2019-03-30T08:43:11.477Z,95.70
2019-03-30T08:45:39.949Z,93.70
2019-03-30T08:48:08.396Z,95.70
2019-03-30T08:50:36.832Z,93.20
2019-03-30T08:53:05.286Z,95.20
2019-03-30T08:55:35.470Z,95.60
2019-03-30T08:58:04.197Z,95.40
2019-03-30T09:00:40.760Z,92.50
2019-03-30T09:03:09.380Z,92.00
2019-03-30T09:05:37.825Z,92.30
2019-03-30T09:08:06.281Z,88.20
2019-03-30T09:10:34.724Z,87.80
2019-03-30T09:13:03.427Z,81.80
2019-03-30T09:15:31.874Z,71.70
2019-03-30T09:18:00.346Z,60.00
2019-03-30T09:20:28.775Z,56.30
2019-03-30T09:22:57.479Z,51.50
2019-03-30T09:25:25.940Z,49.20
2019-03-30T09:27:54.392Z,46.20
2019-03-30T09:30:22.865Z,44.50
2019-03-30T09:32:51.309Z,42.00
2019-03-30T09:35:20.045Z,42.30
2019-03-30T09:37:48.472Z,43.60
2019-03-30T09:40:17.002Z,43.70
2019-03-30T09:42:45.715Z,44.60
2019-03-30T09:45:14.235Z,43.80
2019-03-30T09:47:42.677Z,43.60
2019-03-30T09:50:11.590Z,47.30
2019-03-30T09:52:40.268Z,47.30
2019-03-30T09:55:09.439Z,49.90
2019-03-30T09:57:37.974Z,51.50
2019-03-30T10:00:08.749Z,50.50
2019-03-30T10:02:37.208Z,48.50
2019-03-30T10:05:06.613Z,48.10
2019-03-30T10:07:35.071Z,48.00
2019-03-30T10:10:03.678Z,47.00
2019-03-30T10:12:38.408Z,49.20
2019-03-30T10:15:06.646Z,51.10
2019-03-30T10:17:35.360Z,51.00
2019-03-30T10:20:08.611Z,49.70
2019-03-30T10:22:37.072Z,45.70
2019-03-30T10:25:06.855Z,45.70
2019-03-30T10:27:35.570Z,45.60
2019-03-30T10:30:06.023Z,45.50
2019-03-30T10:32:34.456Z,45.20
2019-03-30T10:35:02.980Z,43.40
2019-03-30T10:37:31.676Z,44.70
2019-03-30T10:40:00.334Z,46.40
2019-03-30T10:42:28.847Z,46.20
2019-03-30T10:44:57.316Z,45.10
2019-03-30T10:47:25.747Z,44.70
2019-03-30T10:49:54.204Z,43.40
2019-03-30T10:52:22.652Z,43.70
2019-03-30T10:54:53.037Z,42.50
2019-03-30T10:57:21.293Z,45.90
2019-03-30T10:59:49.984Z,45.70
2019-03-30T11:02:18.453Z,47.10
2019-03-30T11:04:46.886Z,47.30
2019-03-30T11:07:15.630Z,46.60
2019-03-30T11:09:44.079Z,46.20
2019-03-30T11:12:12.538Z,47.80
2019-03-30T11:14:41.276Z,47.20
2019-03-30T11:17:09.763Z,47.70
2019-03-30T11:19:38.208Z,47.30
2019-03-30T11:22:06.925Z,45.90
2019-03-30T11:24:35.361Z,46.90
2019-03-30T11:27:03.811Z,45.10
2019-03-30T11:29:32.244Z,47.20
2019-03-30T11:32:00.968Z,46.30
2019-03-30T11:34:29.403Z,44.60
2019-03-30T11:36:59.299Z,45.20
2019-03-30T11:39:43.321Z,43.60
2019-03-30T11:42:11.764Z,44.80
2019-03-30T11:44:40.465Z,44.70
2019-03-30T11:47:08.921Z,41.80
2019-03-30T11:49:37.641Z,42.90
2019-03-30T11:52:06.338Z,43.50
2019-03-30T11:54:37.918Z,42.80
2019-03-30T11:57:06.620Z,41.80
2019-03-30T11:59:35.083Z,41.60
2019-03-30T12:02:03.766Z,42.10
2019-03-30T12:04:32.219Z,41.10
2019-03-30T12:07:00.920Z,36.60
2019-03-30T12:09:29.365Z,38.30
2019-03-30T12:11:58.077Z,38.30
2019-03-30T12:14:26.506Z,40.20
2019-03-30T12:16:54.962Z,40.40
2019-03-30T12:19:23.400Z,40.90
2019-03-30T12:21:52.105Z,39.90
2019-03-30T12:24:20.804Z,39.80
2019-03-30T12:26:49.515Z,37.10
2019-03-30T12:29:18.201Z,38.20
2019-03-30T12:31:46.676Z,36.40
2019-03-30T12:34:15.113Z,40.00
2019-03-30T12:36:43.629Z,39.40
2019-03-30T12:39:15.614Z,36.00
2019-03-30T12:41:44.306Z,39.50
2019-03-30T12:44:12.749Z,36.30
2019-03-30T12:46:43.965Z,35.70
2019-03-30T12:49:12.416Z,37.40
2019-03-30T12:51:40.851Z,36.80
2019-03-30T12:54:09.315Z,35.20
2019-03-30T12:56:38.003Z,33.40
2019-03-30T12:59:06.714Z,34.30
2019-03-30T13:01:35.404Z,34.50
2019-03-30T13:04:04.106Z,30.40
2019-03-30T13:06:32.542Z,33.40
2019-03-30T13:09:03.074Z,31.00
2019-03-30T13:11:31.523Z,32.20
2019-03-30T13:13:59.945Z,32.10
2019-03-30T13:16:28.404Z,31.40
2019-03-30T13:18:56.830Z,32.10
2019-03-30T13:21:25.272Z,30.00
2019-03-30T13:23:53.705Z,30.70
2019-03-30T13:26:22.509Z,30.70
2019-03-30T13:28:50.950Z,29.00
2019-03-30T13:31:19.389Z,30.80
2019-03-30T13:33:47.844Z,32.10
2019-03-30T13:36:16.595Z,31.70
2019-03-30T13:38:45.040Z,30.90
2019-03-30T13:41:14.317Z,30.40
2019-03-30T13:43:43.095Z,29.80
2019-03-30T13:46:11.535Z,30.00
2019-03-30T13:48:39.989Z,29.30
2019-03-30T13:51:08.671Z,29.40
2019-03-30T13:53:37.554Z,29.40
2019-03-30T13:56:16.507Z,29.20
2019-03-30T13:58:38.745Z,27.40
2019-03-30T14:01:07.179Z,27.20
2019-03-30T14:03:35.604Z,24.80
2019-03-30T14:06:04.058Z,24.30
2019-03-30T14:08:32.741Z,23.00
2019-03-30T14:11:01.196Z,23.10
2019-03-30T14:13:29.624Z,23.60
2019-03-30T14:15:58.339Z,22.40
2019-03-30T14:18:27.028Z,22.40
2019-03-30T14:20:55.734Z,24.10
2019-03-30T14:23:24.435Z,22.60
2019-03-30T14:25:52.911Z,22.00
2019-03-30T14:28:21.606Z,22.00
2019-03-30T14:30:50.036Z,21.70
2019-03-30T14:33:18.731Z,21.70
2019-03-30T14:35:47.161Z,21.00
2019-03-30T14:38:15.612Z,22.60
2019-03-30T14:40:44.045Z,21.90
2019-03-30T14:43:12.536Z,23.70
2019-03-30T14:45:41.222Z,24.10
2019-03-30T14:48:09.679Z,23.40
2019-03-30T14:50:38.109Z,23.30
2019-03-30T14:53:06.611Z,23.50
2019-03-30T14:55:35.085Z,24.20
2019-03-30T14:58:03.801Z,26.20
2019-03-30T15:00:32.262Z,26.00
2019-03-30T15:03:01.140Z,25.50
2019-03-30T15:05:29.855Z,27.70
2019-03-30T15:07:58.549Z,28.60
2019-03-30T15:10:27.266Z,28.60
2019-03-30T15:12:57.073Z,27.00
2019-03-30T15:15:25.795Z,28.30
2019-03-30T15:17:54.229Z,31.80
2019-03-30T15:20:22.942Z,32.40
2019-03-30T15:22:51.373Z,31.00
2019-03-30T15:25:19.831Z,29.80
2019-03-30T15:27:48.268Z,28.20
2019-03-30T15:30:17.052Z,29.60
2019-03-30T15:32:45.490Z,29.60
2019-03-30T15:35:14.009Z,30.50
2019-03-30T15:37:42.688Z,31.50
2019-03-30T15:40:11.641Z,32.30
2019-03-30T15:42:40.781Z,32.30
2019-03-30T15:45:11.433Z,32.30
2019-03-30T15:47:40.145Z,33.10
2019-03-30T15:50:09.307Z,33.10
2019-03-30T15:52:37.781Z,34.50
2019-03-30T15:55:07.626Z,32.30
2019-03-30T15:57:45.729Z,34.50
2019-03-30T16:00:16.655Z,34.10
2019-03-30T16:02:45.366Z,33.50
2019-03-30T16:05:15.750Z,33.30
2019-03-30T16:07:44.215Z,32.80
2019-03-30T16:10:13.092Z,33.50
2019-03-30T16:12:41.528Z,33.90
2019-03-30T16:15:10.172Z,34.00
2019-03-30T16:17:38.942Z,33.50
2019-03-30T16:20:07.924Z,34.00
2019-03-30T16:22:36.377Z,35.20
2019-03-30T16:25:06.680Z,35.30
2019-03-30T16:27:35.145Z,34.30
2019-03-30T16:30:06.148Z,34.90
2019-03-30T16:32:34.873Z,35.10
2019-03-30T16:35:03.684Z,36.00
2019-03-30T16:37:32.389Z,35.90
2019-03-30T16:40:00.853Z,36.70
2019-03-30T16:42:29.532Z,36.80
2019-03-30T16:44:57.989Z,36.50
2019-03-30T16:47:26.421Z,37.00
2019-03-30T16:49:55.129Z,37.80
2019-03-30T16:52:23.821Z,38.00
2019-03-30T16:54:52.286Z,38.00
2019-03-30T16:57:20.722Z,38.30
2019-03-30T16:59:49.172Z,37.60
2019-03-30T17:02:17.612Z,39.50
2019-03-30T17:04:46.454Z,39.20
2019-03-30T17:07:15.144Z,39.70
2019-03-30T17:09:43.634Z,40.60
2019-03-30T17:12:12.341Z,41.30
2019-03-30T17:14:41.269Z,41.50
2019-03-30T17:17:09.726Z,41.50
2019-03-30T17:19:38.161Z,41.80
2019-03-30T17:22:06.876Z,42.40
2019-03-30T17:24:35.303Z,42.90
2019-03-30T17:27:04.007Z,43.10
2019-03-30T17:29:32.785Z,43.80
2019-03-30T17:32:01.493Z,43.80
2019-03-30T17:34:30.023Z,45.10
2019-03-30T17:36:58.525Z,45.90
2019-03-30T17:39:32.907Z,46.90
2019-03-30T17:42:01.622Z,48.30
2019-03-30T17:44:30.068Z,49.20
2019-03-30T17:46:58.533Z,49.80
2019-03-30T17:49:27.225Z,50.20
2019-03-30T17:51:55.660Z,50.10
2019-03-30T17:54:24.376Z,51.20
2019-03-30T17:56:52.807Z,52.50
2019-03-30T17:59:23.654Z,53.40
2019-03-30T18:01:51.717Z,53.20
2019-03-30T18:04:20.172Z,53.90
2019-03-30T18:06:48.870Z,54.30
2019-03-30T18:09:17.484Z,55.40
2019-03-30T18:11:47.800Z,56.00
2019-03-30T18:14:22.405Z,56.90
2019-03-30T18:16:52.193Z,56.90
2019-03-30T18:19:20.919Z,57.10
2019-03-30T18:21:49.457Z,57.00
2019-03-30T18:24:18.174Z,58.00
2019-03-30T18:26:46.607Z,58.10
2019-03-30T18:29:15.308Z,57.80
2019-03-30T18:31:44.789Z,58.40
2019-03-30T18:34:13.620Z,58.20
2019-03-30T18:36:44.368Z,58.50
2019-03-30T18:39:12.809Z,59.20
2019-03-30T18:41:41.337Z,59.00
2019-03-30T18:44:13.183Z,59.20
2019-03-30T18:46:41.645Z,59.80
2019-03-30T18:49:10.093Z,60.40
2019-03-30T18:51:41.119Z,61.70
2019-03-30T18:54:09.633Z,62.80
2019-03-30T18:56:38.344Z,62.60
2019-03-30T18:59:06.775Z,63.90
2019-03-30T19:01:35.236Z,64.60
2019-03-30T19:04:03.676Z,64.30
2019-03-30T19:06:32.380Z,64.50
2019-03-30T19:09:00.842Z,66.40
2019-03-30T19:11:29.283Z,66.80
2019-03-30T19:13:57.988Z,66.50
2019-03-30T19:16:26.683Z,68.60
2019-03-30T19:18:55.410Z,69.10
2019-03-30T19:21:23.852Z,68.80
2019-03-30T19:23:52.359Z,68.80
2019-03-30T19:26:21.078Z,68.50
2019-03-30T19:28:56.135Z,69.00
2019-03-30T19:31:19.689Z,69.40
2019-03-30T19:33:48.140Z,73.20
2019-03-30T19:36:16.577Z,74.70
2019-03-30T19:38:45.031Z,74.00
2019-03-30T19:41:13.736Z,72.40
2019-03-30T19:43:42.178Z,72.80
2019-03-30T19:46:10.888Z,72.10
2019-03-30T19:48:39.324Z,73.30
2019-03-30T19:51:08.119Z,74.60
2019-03-30T19:53:36.879Z,74.60
2019-03-30T19:56:05.583Z,74.50
2019-03-30T19:58:34.276Z,75.00
2019-03-30T20:01:02.742Z,74.60
2019-03-30T20:03:33.215Z,75.80
2019-03-30T20:06:01.664Z,76.10
2019-03-30T20:08:30.357Z,78.00
2019-03-30T20:11:05.491Z,77.60
2019-03-30T20:13:33.921Z,78.50
2019-03-30T20:16:02.374Z,79.90
2019-03-30T20:18:31.067Z,82.00
2019-03-30T20:20:59.771Z,82.50
2019-03-30T20:23:28.458Z,84.70
2019-03-30T20:26:18.187Z,84.90
2019-03-30T20:28:46.862Z,86.10
2019-03-30T20:31:15.578Z,87.60
2019-03-30T20:33:44.011Z,88.80
2019-03-30T20:36:12.452Z,88.00
2019-03-30T20:38:40.900Z,87.80
2019-03-30T20:41:09.331Z,84.50
2019-03-30T20:43:38.040Z,88.10
2019-03-30T20:46:06.727Z,91.40
2019-03-30T20:48:35.175Z,90.90
2019-03-30T20:51:03.893Z,91.00
2019-03-30T20:53:32.413Z,90.90
2019-03-30T20:56:03.983Z,91.30
2019-03-30T20:58:32.435Z,91.30
2019-03-30T21:01:01.188Z,92.00
2019-03-30T21:03:29.641Z,91.80
2019-03-30T21:05:58.063Z,93.00
2019-03-30T21:08:26.760Z,93.40
2019-03-30T21:10:55.231Z,94.10
2019-03-30T21:13:23.656Z,93.30
2019-03-30T21:15:52.092Z,93.60
2019-03-30T21:18:20.967Z,94.60
2019-03-30T21:20:49.676Z,93.60
2019-03-30T21:23:18.126Z,92.20
2019-03-30T21:25:46.567Z,94.20
2019-03-30T21:28:14.991Z,94.30
2019-03-30T21:30:43.455Z,94.80
2019-03-30T21:33:12.157Z,94.30
2019-03-30T21:35:40.608Z,95.10
2019-03-30T21:38:09.103Z,95.00
2019-03-30T21:40:37.799Z,94.30
2019-03-30T21:43:06.244Z,94.50
2019-03-30T21:45:34.696Z,94.00
2019-03-30T21:48:03.210Z,96.30
2019-03-30T21:50:31.675Z,95.30
2019-03-30T21:53:00.364Z,94.50
2019-03-30T21:55:28.793Z,94.00
2019-03-30T21:57:57.249Z,95.00
2019-03-30T22:00:40.009Z,95.00
2019-03-30T22:03:08.609Z,96.10
2019-03-30T22:05:37.302Z,95.80
2019-03-30T22:08:06.374Z,95.40
2019-03-30T22:10:34.840Z,95.00
2019-03-30T22:13:03.291Z,95.00
2019-03-30T22:15:32.046Z,95.60
2019-03-30T22:18:00.532Z,97.30
2019-03-30T22:20:29.076Z,98.00
2019-03-30T22:22:57.526Z,98.30
2019-03-30T22:25:26.222Z,98.90
2019-03-30T22:27:54.924Z,99.90
2019-03-30T22:30:25.205Z,99.80
2019-03-30T22:32:56.690Z,99.90
2019-03-30T22:35:25.124Z,99.90
2019-03-30T22:37:53.578Z,99.40
2019-03-30T22:40:22.005Z,99.90
2019-03-30T22:42:50.696Z,99.90
2019-03-30T22:45:19.145Z,99.40
2019-03-30T22:47:48.590Z,98.10
2019-03-30T22:50:17.107Z,97.80
2019-03-30T22:52:45.552Z,96.80
2019-03-30T22:55:13.980Z,97.20
2019-03-30T22:57:42.412Z,98.30
2019-03-30T23:00:16.952Z,99.90
2019-03-30T23:02:45.747Z,99.90
2019-03-30T23:05:14.531Z,99.90
2019-03-30T23:07:43.295Z,99.90
2019-03-30T23:10:11.781Z,99.90
2019-03-30T23:12:40.484Z,99.90
2019-03-30T23:15:08.992Z,99.90
2019-03-30T23:17:37.692Z,99.80
2019-03-30T23:20:06.560Z,99.30
2019-03-30T23:22:35.104Z,99.90
2019-03-30T23:25:04.671Z,99.90
2019-03-30T23:27:33.119Z,99.90
2019-03-30T23:30:01.813Z,99.90
2019-03-30T23:32:30.530Z,99.90
2019-03-30T23:34:58.967Z,99.90
2019-03-30T23:37:30.394Z,99.90
2019-03-30T23:39:58.824Z,99.90
2019-03-30T23:42:27.260Z,99.90
2019-03-30T23:44:55.728Z,99.90
2019-03-30T23:47:24.560Z,99.90
2019-03-30T23:49:53.016Z,99.90
2019-03-30T23:52:21.710Z,99.90
2019-03-30T23:54:50.146Z,99.90
2019-03-30T23:57:18.747Z,99.90
2019-03-30T23:59:47.203Z,99.90
